createdAt,value
2019-01-13T00:02:57.494Z,13.85
2019-01-13T00:08:05.164Z,13.59
2019-01-13T00:13:12.776Z,13.92
2019-01-13T00:18:20.469Z,13.53
2019-01-13T00:23:28.126Z,16.91
2019-01-13T00:28:35.815Z,13.20
2019-01-13T00:33:43.425Z,13.49
2019-01-13T00:38:51.057Z,13.79
2019-01-13T00:43:58.703Z,14.92
2019-01-13T00:49:06.349Z,14.47
2019-01-13T00:54:14.037Z,18.98
2019-01-13T00:59:21.685Z,15.07
2019-01-13T01:04:29.331Z,15.41
2019-01-13T01:09:36.992Z,15.69
2019-01-13T01:14:44.705Z,16.67
2019-01-13T01:19:52.321Z,16.91
2019-01-13T01:24:59.964Z,20.90
2019-01-13T01:30:07.605Z,19.76
2019-01-13T01:35:15.249Z,14.93
2019-01-13T01:40:22.876Z,15.48
2019-01-13T01:45:30.548Z,15.87
2019-01-13T01:50:38.164Z,16.81
2019-01-13T01:55:45.824Z,16.62
2019-01-13T02:00:53.442Z,16.96
2019-01-13T02:06:01.113Z,16.44
2019-01-13T02:11:08.724Z,16.96
2019-01-13T02:16:16.406Z,17.30
2019-01-13T02:21:24.030Z,22.55
2019-01-13T02:26:31.676Z,21.41
2019-01-13T02:31:39.352Z,21.56
2019-01-13T02:36:46.977Z,21.50
2019-01-13T02:41:54.661Z,17.12
2019-01-13T02:47:02.290Z,17.20
2019-01-13T02:52:09.936Z,22.56
2019-01-13T02:57:17.545Z,17.02
2019-01-13T03:02:25.237Z,16.26
2019-01-13T03:07:32.866Z,16.17
2019-01-13T03:12:40.539Z,17.44
2019-01-13T03:17:48.148Z,16.86
2019-01-13T03:22:55.848Z,17.38
2019-01-13T03:28:03.470Z,18.23
2019-01-13T03:33:11.262Z,17.78
2019-01-13T03:38:18.812Z,18.04
2019-01-13T03:43:26.517Z,18.07
2019-01-13T03:48:34.142Z,17.69
2019-01-13T03:53:41.817Z,17.39
2019-01-13T03:58:49.449Z,16.86
2019-01-13T04:03:57.096Z,16.72
2019-01-13T04:09:04.725Z,20.43
2019-01-13T04:14:12.421Z,18.95
2019-01-13T04:19:20.053Z,13.81
2019-01-13T04:24:27.774Z,13.78
2019-01-13T04:29:35.404Z,13.19
2019-01-13T04:34:43.111Z,13.69
2019-01-13T04:39:50.734Z,13.51
2019-01-13T04:44:58.352Z,13.52
2019-01-13T04:50:05.996Z,14.18
2019-01-13T04:55:13.615Z,13.56
2019-01-13T05:00:21.259Z,13.68
2019-01-13T05:05:28.864Z,16.04
2019-01-13T05:10:36.565Z,12.95
2019-01-13T05:15:44.192Z,13.30
2019-01-13T05:20:51.881Z,12.28
2019-01-13T05:25:59.540Z,12.32
2019-01-13T05:31:07.179Z,14.03
2019-01-13T05:36:14.952Z,11.09
2019-01-13T05:41:22.621Z,11.01
2019-01-13T05:46:30.312Z,11.08
2019-01-13T05:51:37.944Z,11.62
2019-01-13T05:56:45.645Z,12.41
2019-01-13T06:01:53.252Z,12.43
2019-01-13T06:07:00.947Z,13.66
2019-01-13T06:12:08.557Z,15.82
2019-01-13T06:17:16.272Z,13.85
2019-01-13T06:22:23.968Z,11.78
2019-01-13T06:27:31.660Z,11.59
2019-01-13T06:32:39.309Z,12.32
2019-01-13T06:37:56.049Z,13.68
2019-01-13T06:42:52.990Z,14.49
2019-01-13T06:48:00.533Z,14.82
2019-01-13T06:53:17.825Z,15.44
2019-01-13T06:58:14.513Z,16.91
2019-01-13T07:03:30.345Z,16.51
2019-01-13T07:08:27.454Z,18.05
2019-01-13T07:13:35.260Z,18.60
2019-01-13T07:18:42.919Z,18.91
2019-01-13T07:23:50.551Z,19.27
2019-01-13T07:28:58.190Z,21.18
2019-01-13T07:34:05.837Z,15.00
2019-01-13T07:39:13.474Z,14.77
2019-01-13T07:44:21.140Z,14.07
2019-01-13T07:49:28.771Z,12.46
2019-01-13T07:54:36.429Z,11.79
2019-01-13T07:59:44.057Z,11.09
2019-01-13T08:04:51.741Z,11.87
2019-01-13T08:09:59.362Z,9.13
2019-01-13T08:15:07.089Z,8.72
2019-01-13T08:20:14.723Z,7.98
2019-01-13T08:25:22.412Z,9.27
2019-01-13T08:30:30.042Z,7.58
2019-01-13T08:35:37.712Z,8.52
2019-01-13T08:40:45.304Z,7.47
2019-01-13T08:46:00.044Z,6.94
2019-01-13T08:50:56.857Z,7.46
2019-01-13T08:56:04.705Z,7.08
2019-01-13T09:01:12.393Z,6.79
2019-01-13T09:06:20.017Z,7.42
2019-01-13T09:11:27.684Z,6.46
2019-01-13T09:16:35.389Z,6.81
2019-01-13T09:21:43.094Z,7.02
2019-01-13T09:26:51.319Z,6.13
2019-01-13T09:31:58.062Z,5.79
2019-01-13T09:37:05.741Z,7.10
2019-01-13T09:42:13.388Z,6.29
2019-01-13T09:47:21.124Z,6.12
2019-01-13T09:52:28.747Z,6.20
2019-01-13T09:57:36.434Z,6.20
2019-01-13T10:02:46.728Z,6.42
2019-01-13T10:07:51.312Z,6.91
2019-01-13T10:12:58.948Z,7.56
2019-01-13T10:18:06.625Z,8.04
2019-01-13T10:23:14.252Z,7.95
2019-01-13T10:28:21.885Z,7.78
2019-01-13T10:33:29.509Z,9.38
2019-01-13T10:38:37.344Z,7.89
2019-01-13T10:43:44.979Z,7.86
2019-01-13T10:48:52.627Z,8.43
2019-01-13T10:54:00.258Z,8.78
2019-01-13T10:59:07.945Z,10.90
2019-01-13T11:04:15.580Z,8.95
2019-01-13T11:09:23.225Z,9.96
2019-01-13T11:14:30.850Z,7.96
2019-01-13T11:19:38.524Z,8.75
2019-01-13T11:24:49.198Z,9.53
2019-01-13T11:29:46.881Z,7.49
2019-01-13T11:34:54.545Z,8.00
2019-01-13T11:40:02.182Z,6.68
2019-01-13T11:45:09.821Z,7.08
2019-01-13T11:50:17.539Z,8.02
2019-01-13T11:55:25.175Z,6.88
2019-01-13T12:00:32.820Z,7.26
2019-01-13T12:05:40.457Z,7.16
2019-01-13T12:10:48.128Z,7.64
2019-01-13T12:15:55.748Z,7.61
2019-01-13T12:21:03.380Z,8.17
2019-01-13T12:26:11.000Z,8.05
2019-01-13T12:31:18.678Z,8.45
2019-01-13T12:36:26.290Z,8.11
2019-01-13T12:41:33.920Z,8.82
2019-01-13T12:46:41.538Z,8.67
2019-01-13T12:51:49.198Z,8.94
2019-01-13T12:56:56.832Z,9.31
2019-01-13T13:02:04.582Z,10.94
2019-01-13T13:07:12.188Z,9.49
2019-01-13T13:12:19.845Z,9.47
2019-01-13T13:17:27.500Z,10.00
2019-01-13T13:22:35.241Z,11.75
2019-01-13T13:27:42.880Z,10.90
2019-01-13T13:32:50.609Z,11.43
2019-01-13T13:37:58.264Z,10.48
2019-01-13T13:43:05.921Z,10.26
2019-01-13T13:48:13.524Z,10.86
2019-01-13T13:53:21.185Z,11.57
2019-01-13T13:58:28.801Z,11.72
2019-01-13T14:03:36.540Z,12.16
2019-01-13T14:08:44.175Z,12.40
2019-01-13T14:13:51.860Z,9.87
2019-01-13T14:18:59.485Z,11.40
2019-01-13T14:24:07.204Z,9.50
2019-01-13T14:29:26.988Z,8.89
2019-01-13T14:34:24.593Z,8.99
2019-01-13T14:39:32.234Z,7.68
2019-01-13T14:44:39.962Z,6.73
2019-01-13T14:49:47.561Z,6.76
2019-01-13T14:54:55.338Z,5.84
2019-01-13T15:00:02.984Z,6.67
2019-01-13T15:05:10.709Z,6.30
2019-01-13T15:10:18.342Z,5.49
2019-01-13T15:15:34.906Z,5.61
2019-01-13T15:20:40.650Z,5.72
2019-01-13T15:25:43.961Z,6.41
2019-01-13T15:30:46.618Z,6.99
2019-01-13T15:35:51.312Z,4.99
2019-01-13T15:40:48.484Z,4.81
2019-01-13T15:45:56.193Z,5.37
2019-01-13T15:51:03.818Z,4.17
2019-01-13T15:56:11.504Z,5.15
2019-01-13T16:01:19.136Z,3.94
2019-01-13T16:06:28.793Z,4.84
2019-01-13T16:11:35.286Z,4.59
2019-01-13T16:16:42.953Z,4.97
2019-01-13T16:21:50.577Z,3.83
2019-01-13T16:26:58.334Z,4.24
2019-01-13T16:32:05.957Z,3.82
2019-01-13T16:37:13.570Z,4.39
2019-01-13T16:42:21.257Z,3.90
2019-01-13T16:47:28.884Z,3.56
2019-01-13T16:52:36.832Z,3.93
2019-01-13T16:57:44.476Z,3.55
2019-01-13T17:02:52.189Z,4.18
2019-01-13T17:07:59.802Z,4.21
2019-01-13T17:13:07.428Z,3.42
2019-01-13T17:18:15.038Z,3.52
2019-01-13T17:23:22.672Z,3.43
2019-01-13T17:28:30.294Z,4.03
2019-01-13T17:33:43.141Z,3.36
2019-01-13T17:38:40.749Z,3.35
2019-01-13T17:43:48.424Z,2.93
2019-01-13T17:48:56.048Z,3.82
2019-01-13T17:54:03.716Z,2.94
2019-01-13T17:59:11.480Z,2.38
2019-01-13T18:04:19.157Z,2.18
2019-01-13T18:09:26.753Z,2.54
2019-01-13T18:14:34.406Z,3.05
2019-01-13T18:19:42.189Z,3.44
2019-01-13T18:24:49.920Z,5.43
2019-01-13T18:29:57.559Z,4.46
2019-01-13T18:35:05.237Z,4.46
2019-01-13T18:40:12.870Z,3.82
2019-01-13T18:45:20.556Z,3.81
2019-01-13T18:50:28.197Z,3.50
2019-01-13T18:55:35.833Z,3.93
2019-01-13T19:00:43.468Z,2.79
2019-01-13T19:05:51.326Z,2.71
2019-01-13T19:10:59.072Z,1.70
2019-01-13T19:16:07.933Z,1.95
2019-01-13T19:21:15.561Z,2.22
2019-01-13T19:26:23.370Z,2.48
2019-01-13T19:31:38.738Z,2.36
2019-01-13T19:36:36.407Z,3.06
2019-01-13T19:41:44.238Z,3.50
2019-01-13T19:46:51.840Z,3.78
2019-01-13T19:52:00.803Z,4.16
2019-01-13T19:57:22.067Z,5.22
2019-01-13T20:02:09.437Z,3.94
2019-01-13T20:07:17.166Z,3.84
2019-01-13T20:12:24.929Z,4.18
2019-01-13T20:17:32.737Z,4.35
2019-01-13T20:22:40.507Z,5.12
2019-01-13T20:27:59.103Z,4.56
2019-01-13T20:32:57.791Z,5.00
2019-01-13T20:38:13.768Z,5.08
2019-01-13T20:43:10.720Z,4.88
2019-01-13T20:48:19.241Z,4.32
2019-01-13T20:53:26.824Z,4.05
2019-01-13T20:58:34.493Z,4.11
2019-01-13T21:03:42.146Z,3.83
2019-01-13T21:08:49.868Z,4.20
2019-01-13T21:13:57.505Z,3.74
2019-01-13T21:19:05.157Z,4.14
2019-01-13T21:24:12.796Z,3.78
2019-01-13T21:29:20.437Z,4.29
2019-01-13T21:34:28.065Z,4.72
2019-01-13T21:39:35.768Z,4.37
2019-01-13T21:44:43.385Z,4.02
2019-01-13T21:49:51.085Z,4.08
2019-01-13T21:54:58.733Z,3.95
2019-01-13T22:00:06.421Z,4.19
2019-01-13T22:05:14.048Z,3.41
2019-01-13T22:10:21.712Z,4.13
2019-01-13T22:15:29.334Z,4.52
2019-01-13T22:20:37.007Z,3.89
2019-01-13T22:25:44.631Z,4.58
2019-01-13T22:30:52.326Z,4.94
2019-01-13T22:36:01.125Z,5.31
2019-01-13T22:41:08.788Z,5.63
2019-01-13T22:46:16.431Z,4.40
2019-01-13T22:51:24.038Z,4.47
2019-01-13T22:56:31.688Z,5.56
2019-01-13T23:01:39.318Z,4.57
2019-01-13T23:06:47.020Z,4.33
2019-01-13T23:11:54.649Z,4.66
2019-01-13T23:17:02.361Z,4.47
2019-01-13T23:22:10.008Z,4.77
2019-01-13T23:27:17.728Z,4.74
2019-01-13T23:32:25.350Z,4.66
2019-01-13T23:37:33.018Z,5.24
2019-01-13T23:42:40.632Z,4.68
2019-01-13T23:47:48.349Z,4.28
2019-01-13T23:52:55.985Z,4.58
2019-01-13T23:58:03.689Z,3.84
